Time;durP1;ratioP1;P1;durP2;ratioP2;P2;SDS_P1;SDS_P2;PMS_P1;PMS_P2;Temp;Humidity;BMP_temperature;BMP_pressure;BME280_temperature;BME280_humidity;BME280_pressure;Samples;Min_cycle;Max_cycle;Signal;HPM_P1;HPM_P2
2021/09/26 05:02:47;;;;;;;7.95;7.15;;;;;;;13.23;85.59;95446.72;5082579;23;20087;-85
2021/09/26 05:05:13;;;;;;;9.57;8.38;;;;;;;11.89;91.37;95468.59;5011227;28;20026;-84
2021/09/26 05:07:38;;;;;;;9.00;6.65;;;;;;;11.93;92.59;95460.34;5029723;28;20033;-83
2021/09/26 05:10:04;;;;;;;9.75;6.18;;;;;;;13.61;86.77;95461.34;5017410;28;20429;-82
2021/09/26 05:12:29;;;;;;;9.35;5.70;;;;;;;17.21;69.72;95442.84;5047341;28;20033;-84
2021/09/26 05:15:01;;;;;;;7.22;5.93;;;;;;;17.66;66.15;95443.16;5048711;28;20099;-83
2021/09/26 05:17:26;;;;;;;5.38;4.97;;;;;;;19.01;61.56;95425.59;5039616;28;20059;-83
2021/09/26 05:19:51;;;;;;;6.07;5.57;;;;;;;18.60;62.53;95443.56;5018568;28;20039;-81
2021/09/26 05:22:17;;;;;;;6.45;5.53;;;;;;;16.69;69.25;95440.13;5029067;28;20048;-82
2021/09/26 05:24:42;;;;;;;11.73;4.10;;;;;;;16.98;70.24;95428.53;5029908;28;20037;-82
2021/09/26 05:27:08;;;;;;;7.43;4.80;;;;;;;15.13;75.28;95426.59;5028148;28;20087;-82
2021/09/26 05:29:33;;;;;;;4.63;4.10;;;;;;;14.93;79.49;95438.63;5026579;28;20532;-80
2021/09/26 05:31:59;;;;;;;5.35;4.82;;;;;;;17.22;70.94;95428.78;5029401;28;20029;-81
2021/09/26 05:34:25;;;;;;;4.80;4.38;;;;;;;16.72;70.92;95434.50;5028431;28;20057;-81
2021/09/26 05:36:51;;;;;;;5.80;4.35;;;;;;;15.63;78.37;95440.50;5044942;28;20108;-82
2021/09/26 05:39:18;;;;;;;4.38;3.97;;;;;;;17.28;71.27;95435.00;5027674;28;20044;-82
2021/09/26 05:41:44;;;;;;;5.57;5.07;;;;;;;17.30;71.22;95433.03;5045870;28;20029;-80
2021/09/26 05:44:09;;;;;;;5.13;4.63;;;;;;;17.96;69.14;95439.06;5047590;28;20021;-81
2021/09/26 05:46:34;;;;;;;4.68;4.38;;;;;;;18.84;65.92;95433.19;5048515;28;20374;-78
2021/09/26 05:49:00;;;;;;;4.53;4.13;;;;;;;19.19;64.51;95433.59;5060788;28;20021;-81
2021/09/26 05:51:26;;;;;;;4.10;3.80;;;;;;;19.82;62.84;95436.16;5047449;28;20036;-81
2021/09/26 05:53:51;;;;;;;8.25;4.28;;;;;;;22.42;54.64;95418.03;5047477;28;20112;-80
2021/09/26 05:56:17;;;;;;;5.30;4.88;;;;;;;26.06;44.09;95426.69;5046268;28;20028;-81
2021/09/26 05:58:46;;;;;;;5.13;4.60;;;;;;;26.80;42.53;95440.69;5046272;28;20033;-81
2021/09/26 06:01:12;;;;;;;7.30;6.60;;;;;;;26.86;42.19;95429.03;5047227;28;20052;-81
2021/09/26 06:03:38;;;;;;;6.65;5.05;;;;;;;24.97;45.87;95432.31;5045191;28;20029;-81
2021/09/26 06:06:04;;;;;;;5.72;5.25;;;;;;;27.98;39.96;95438.03;5046097;28;20025;-81
2021/09/26 06:08:30;;;;;;;5.82;4.43;;;;;;;26.11;42.78;95432.84;5044819;28;20021;-81
2021/09/26 06:10:56;;;;;;;5.75;4.72;;;;;;;28.69;38.57;95428.88;5054782;28;20500;-80
2021/09/26 06:13:21;;;;;;;5.78;5.00;;;;;;;29.25;36.71;95423.34;5054379;28;20039;-82
2021/09/26 06:15:47;;;;;;;6.75;4.20;;;;;;;30.36;34.96;95438.50;5026227;28;20109;-82
2021/09/26 06:18:13;;;;;;;7.78;3.60;;;;;;;30.04;35.43;95422.22;5024496;28;20116;-83
2021/09/26 06:20:38;;;;;;;4.03;3.72;;;;;;;30.96;34.13;95437.09;5008350;28;20033;-81
2021/09/26 06:23:04;;;;;;;4.68;3.53;;;;;;;30.81;34.45;95432.69;5026774;28;20060;-82
2021/09/26 06:25:30;;;;;;;4.13;3.10;;;;;;;32.18;32.32;95433.44;5023041;28;20060;-81
2021/09/26 06:27:57;;;;;;;2.67;2.47;;;;;;;32.22;31.10;95419.16;5046083;28;20082;-82
2021/09/26 06:30:24;;;;;;;3.42;3.13;;;;;;;31.08;33.73;95434.00;5026961;28;20456;-83
2021/09/26 06:32:49;;;;;;;201.82;10.45;;;;;;;31.97;31.83;95416.91;5045555;28;20505;-82
2021/09/26 06:35:15;;;;;;;3.08;2.88;;;;;;;32.82;31.31;95419.94;5028061;28;20039;-82
2021/09/26 06:37:41;;;;;;;4.57;3.38;;;;;;;31.59;32.83;95434.94;5045055;28;20025;-81
2021/09/26 06:40:07;;;;;;;3.55;3.28;;;;;;;33.04;31.33;95438.00;5045659;28;20493;-81
2021/09/26 06:42:36;;;;;;;3.30;3.10;;;;;;;32.44;31.67;95434.59;5044865;28;20554;-82
2021/09/26 06:45:02;;;;;;;3.28;3.00;;;;;;;32.68;31.51;95418.34;5046899;28;20017;-81
2021/09/26 06:47:28;;;;;;;5.90;3.60;;;;;;;32.27;31.68;95429.03;5027801;28;20529;-81
2021/09/26 06:49:53;;;;;;;4.78;3.55;;;;;;;34.04;29.27;95436.06;5052688;28;20033;-82
2021/09/26 06:52:19;;;;;;;3.10;2.90;;;;;;;34.98;28.73;95427.72;5046939;28;20040;-82
2021/09/26 06:54:44;;;;;;;3.47;3.17;;;;;;;34.59;28.78;95437.38;5065055;28;20025;-81
2021/09/26 06:57:10;;;;;;;3.40;3.10;;;;;;;34.58;29.15;95430.38;5064112;28;20027;-82
2021/09/26 06:59:36;;;;;;;3.58;3.28;;;;;;;34.61;28.66;95431.72;5065243;28;20103;-83
2021/09/26 07:02:02;;;;;;;3.38;3.17;;;;;;;34.84;28.64;95435.91;5064050;28;20052;-82
2021/09/26 07:04:27;;;;;;;3.30;3.10;;;;;;;34.64;29.49;95429.19;5065766;28;20414;-83
2021/09/26 07:06:53;;;;;;;3.88;3.38;;;;;;;35.56;28.27;95425.44;5066748;28;20117;-81
2021/09/26 07:09:18;;;;;;;4.10;3.70;;;;;;;35.35;27.69;95432.59;5030117;28;20098;-81
2021/09/26 07:11:44;;;;;;;5.53;4.10;;;;;;;34.98;28.79;95435.78;5064997;28;20029;-82
2021/09/26 07:14:10;;;;;;;3.58;3.30;;;;;;;35.31;28.95;95426.22;5065671;28;20446;-82
2021/09/26 07:16:35;;;;;;;4.57;4.15;;;;;;;28.49;38.82;95447.56;5066719;28;20029;-82
2021/09/26 07:19:01;;;;;;;6.07;4.40;;;;;;;24.94;45.53;95432.00;5068096;28;20024;-82
2021/09/26 07:21:26;;;;;;;5.70;4.28;;;;;;;25.38;46.21;95430.88;5065697;28;20039;-82
2021/09/26 07:23:52;;;;;;;4.25;3.85;;;;;;;24.57;47.72;95415.88;5066713;28;20067;-82
2021/09/26 07:26:17;;;;;;;4.60;4.20;;;;;;;25.88;46.23;95443.81;5048462;28;20039;-82
2021/09/26 07:28:43;;;;;;;6.60;4.30;;;;;;;25.19;47.41;95445.53;5066895;28;20063;-82
2021/09/26 07:31:08;;;;;;;4.80;4.40;;;;;;;25.08;46.39;95433.22;5047266;28;20031;-81
2021/09/26 07:33:34;;;;;;;4.75;4.30;;;;;;;24.18;50.30;95441.59;5066070;28;20033;-83
2021/09/26 07:35:59;;;;;;;4.05;3.75;;;;;;;23.96;51.01;95443.34;5065852;28;20497;-82
2021/09/26 07:38:25;;;;;;;4.85;4.45;;;;;;;24.69;49.16;95442.28;5064935;28;20032;-83
2021/09/26 07:40:51;;;;;;;4.60;4.20;;;;;;;24.44;49.41;95438.25;5064338;28;20032;-82
2021/09/26 07:43:16;;;;;;;9.18;4.65;;;;;;;24.44;49.13;95442.75;5056010;28;20024;-82
2021/09/26 07:45:41;;;;;;;4.95;4.47;;;;;;;23.69;51.37;95437.91;5047153;28;20087;-81
2021/09/26 07:48:07;;;;;;;4.88;4.50;;;;;;;23.36;51.53;95433.34;5044027;28;20048;-83
2021/09/26 07:50:33;;;;;;;4.78;4.38;;;;;;;23.93;51.25;95449.13;5045348;28;20033;-83
2021/09/26 07:52:58;;;;;;;13.18;5.25;;;;;;;23.51;50.79;95446.88;5044677;28;20033;-81
2021/09/26 07:55:24;;;;;;;4.35;4.00;;;;;;;23.37;51.80;95426.22;5048508;28;20028;-80
2021/09/26 07:57:49;;;;;;;5.45;3.75;;;;;;;24.19;51.18;95443.19;5046765;28;20036;-81
2021/09/26 08:00:15;;;;;;;4.82;4.43;;;;;;;24.34;49.88;95438.09;5049354;28;20032;-82
2021/09/26 08:02:40;;;;;;;4.60;4.30;;;;;;;23.32;52.30;95444.63;5048105;28;20084;-81
2021/09/26 08:05:07;;;;;;;4.35;3.95;;;;;;;23.96;50.44;95430.09;5050952;28;20470;-79
2021/09/26 08:07:33;;;;;;;6.80;3.88;;;;;;;24.46;49.38;95448.63;5047797;28;20029;-80
2021/09/26 08:09:59;;;;;;;4.15;3.85;;;;;;;23.98;51.50;95446.56;5048076;28;20039;-79
2021/09/26 08:12:24;;;;;;;4.40;4.00;;;;;;;23.57;50.19;95437.97;5049828;28;20033;-80
2021/09/26 08:14:50;;;;;;;4.20;3.90;;;;;;;24.39;50.12;95442.69;5046596;28;20478;-81
2021/09/26 08:17:15;;;;;;;4.82;4.38;;;;;;;24.48;50.04;95444.66;5048255;28;20021;-81
2021/09/26 08:19:41;;;;;;;9.60;4.38;;;;;;;24.74;49.33;95437.03;5040667;28;20679;-81
2021/09/26 08:22:06;;;;;;;40.97;4.38;;;;;;;24.60;48.84;95440.06;5048152;28;20068;-79
2021/09/26 08:24:32;;;;;;;4.43;3.28;;;;;;;24.98;48.36;95433.13;5049255;28;20021;-79
2021/09/26 08:26:59;;;;;;;5.15;3.55;;;;;;;24.98;48.25;95433.91;5048217;28;20032;-79
2021/09/26 08:29:24;;;;;;;4.05;3.70;;;;;;;24.69;48.76;95427.19;5048229;28;20107;-78
2021/09/26 08:31:50;;;;;;;77.57;5.82;;;;;;;25.33;47.39;95430.03;5047268;28;20032;-78
2021/09/26 08:34:15;;;;;;;5.25;3.13;;;;;;;25.46;46.19;95414.50;5048935;28;20032;-79
2021/09/26 08:36:40;;;;;;;87.72;6.82;;;;;;;25.41;46.76;95406.50;5049106;28;20017;-78
2021/09/26 08:39:06;;;;;;;50.78;5.25;;;;;;;25.22;47.70;95415.88;5048823;28;20025;-79
2021/09/26 08:41:32;;;;;;;4.07;3.78;;;;;;;25.31;47.16;95413.56;5048890;28;20025;-79
2021/09/26 08:43:57;;;;;;;4.38;3.70;;;;;;;24.63;48.81;95415.72;5048804;28;20029;-78
2021/09/26 08:46:23;;;;;;;159.85;8.98;;;;;;;25.45;46.80;95415.56;5031358;28;20119;-78
2021/09/26 08:48:49;;;;;;;4.10;3.80;;;;;;;25.62;47.69;95413.59;5048964;28;20037;-77
2021/09/26 08:51:14;;;;;;;4.35;3.63;;;;;;;25.24;46.04;95413.75;5046810;28;20507;-77
2021/09/26 08:53:40;;;;;;;37.97;4.15;;;;;;;26.03;44.58;95412.06;5048660;28;20398;-78
2021/09/26 08:56:05;;;;;;;3.20;2.90;;;;;;;25.33;45.50;95393.72;5059462;28;20496;-78
2021/09/26 08:58:31;;;;;;;7.88;3.33;;;;;;;25.95;46.38;95403.75;5047277;28;20051;-77
2021/09/26 09:00:56;;;;;;;227.25;13.30;;;;;;;26.38;44.68;95405.41;5046425;28;20583;-78
2021/09/26 09:03:22;;;;;;;4.25;3.60;;;;;;;26.17;45.71;95407.13;5049087;28;20028;-78
2021/09/26 09:05:51;;;;;;;35.45;4.13;;;;;;;26.67;44.12;95399.44;5048001;28;20025;-78
2021/09/26 09:08:18;;;;;;;17.77;3.90;;;;;;;26.17;43.18;95399.16;5049151;28;20029;-80
2021/09/26 09:10:47;;;;;;;42.92;4.03;;;;;;;26.71;42.60;95402.38;5046749;28;20044;-79
2021/09/26 09:13:26;;;;;;;3.35;3.15;;;;;;;27.08;42.09;95396.91;5048386;28;20037;-78
2021/09/26 09:15:57;;;;;;;3.20;3.00;;;;;;;27.73;42.05;95398.88;5048340;28;20146;-78
2021/09/26 09:18:22;;;;;;;4.47;3.17;;;;;;;27.82;41.91;95393.81;5047037;28;20044;-78
2021/09/26 09:20:48;;;;;;;3.17;2.80;;;;;;;27.77;39.85;95386.66;5048069;28;20474;-78
2021/09/26 09:23:17;;;;;;;3.10;2.90;;;;;;;27.14;41.58;95387.88;5045478;28;20036;-78
2021/09/26 09:25:49;;;;;;;;;;;;;;;27.39;40.11;95389.81;5047883;28;20033;-77
2021/09/26 09:28:17;;;;;;;5.10;2.80;;;;;;;27.87;40.15;95391.94;5047330;28;19919;-79
2021/09/26 09:30:44;;;;;;;2.20;2.10;;;;;;;28.09;39.67;95386.38;5048691;28;20036;-78
2021/09/26 09:33:10;;;;;;;2.80;2.60;;;;;;;27.80;38.94;95390.63;5047847;28;20055;-79
2021/09/26 09:35:40;;;;;;;2.92;2.65;;;;;;;27.91;39.76;95390.34;5048027;28;20497;-78
2021/09/26 09:38:05;;;;;;;32.25;2.85;;;;;;;28.18;38.42;95380.22;5048486;28;20028;-78
2021/09/26 09:40:31;;;;;;;3.40;3.10;;;;;;;27.93;39.16;95371.44;5047403;28;20026;-78
2021/09/26 09:42:56;;;;;;;2.92;2.72;;;;;;;28.69;38.04;95374.75;5048788;28;20025;-78
2021/09/26 09:45:23;;;;;;;3.42;2.40;;;;;;;28.45;39.15;95377.19;5028874;28;20060;-77
2021/09/26 09:48:11;;;;;;;2.28;2.17;;;;;;;28.15;39.37;95372.78;5051346;28;20033;-78
2021/09/26 09:50:45;;;;;;;3.65;2.40;;;;;;;28.69;38.31;95369.41;5052804;28;20025;-78
2021/09/26 09:53:32;;;;;;;2.78;2.03;;;;;;;28.02;38.56;95359.97;5047682;28;20021;-78
2021/09/26 09:56:13;;;;;;;2.53;2.25;;;;;;;28.29;38.66;95362.31;5050667;28;20652;-77
2021/09/26 09:58:50;;;;;;;4.90;2.55;;;;;;;28.90;38.88;95364.78;5047016;28;20029;-77
2021/09/26 10:01:17;;;;;;;2.65;1.98;;;;;;;29.02;36.86;95359.91;4969654;28;20093;-77
2021/09/26 10:03:47;;;;;;;66.85;5.82;;;;;;;27.90;36.84;95364.00;4998486;28;20075;-78
2021/09/26 10:06:21;;;;;;;2.75;2.55;;;;;;;28.39;37.50;95354.28;4998157;28;20026;-78
2021/09/26 10:08:47;;;;;;;3.13;2.83;;;;;;;28.53;38.08;95354.50;5006732;28;20103;-78
2021/09/26 10:11:13;;;;;;;6.85;4.97;;;;;;;28.42;38.19;95358.28;4997070;28;20427;-80
2021/09/26 10:13:39;;;;;;;4.63;2.92;;;;;;;28.11;38.56;95354.91;5008274;28;20036;-81
2021/09/26 10:16:09;;;;;;;6.18;2.75;;;;;;;27.75;38.81;95344.28;5007358;28;20041;-79
2021/09/26 10:18:35;;;;;;;3.67;2.97;;;;;;;27.96;38.56;95341.59;5008293;28;20025;-80
2021/09/26 10:21:01;;;;;;;98.63;5.70;;;;;;;27.50;38.86;95333.66;5007973;28;20549;-78
2021/09/26 10:23:26;;;;;;;2.88;2.67;;;;;;;27.58;39.57;95343.75;5006401;28;20083;-79
2021/09/26 10:25:52;;;;;;;42.33;4.28;;;;;;;27.53;39.60;95341.13;5007564;28;20022;-78
2021/09/26 10:28:17;;;;;;;4.25;2.78;;;;;;;27.87;38.89;95327.25;4989091;28;20412;-77
2021/09/26 10:30:46;;;;;;;3.10;2.90;;;;;;;28.16;38.63;95337.03;5003397;28;20030;-80
2021/09/26 10:33:12;;;;;;;2.80;2.25;;;;;;;28.06;38.44;95330.97;4994053;28;20025;-79
2021/09/26 10:35:38;;;;;;;2.38;2.17;;;;;;;27.79;37.72;95319.78;5007561;28;20510;-80
2021/09/26 10:38:09;;;;;;;42.70;3.22;;;;;;;27.45;39.77;95322.22;5007326;28;20037;-81
2021/09/26 10:40:38;;;;;;;6.65;4.13;;;;;;;27.33;40.72;95316.31;5002814;28;20026;-78
2021/09/26 10:43:24;;;;;;;3.85;2.60;;;;;;;27.89;39.25;95319.75;4986243;28;20085;-80
2021/09/26 10:45:50;;;;;;;3.58;2.40;;;;;;;27.46;39.10;95313.97;4985914;28;20041;-79
2021/09/26 10:48:15;;;;;;;2.00;1.90;;;;;;;27.57;38.73;95304.91;4986676;28;20026;-78
2021/09/26 10:50:43;;;;;;;83.47;4.57;;;;;;;27.88;38.48;95307.50;4987535;28;20069;-79
2021/09/26 10:53:13;;;;;;;3.33;2.33;;;;;;;27.71;38.34;95286.50;4987944;28;20454;-79
2021/09/26 10:55:42;;;;;;;4.90;3.22;;;;;;;27.99;39.29;95293.09;4991891;28;20022;-79
2021/09/26 10:58:09;;;;;;;97.90;6.22;;;;;;;28.05;37.88;95297.34;4958102;28;20034;-78
2021/09/26 11:00:36;;;;;;;2.13;1.92;;;;;;;27.69;36.47;95292.09;4991763;28;20550;-78
2021/09/26 11:03:41;;;;;;;2.70;2.13;;;;;;;27.44;37.37;95273.50;4990776;28;20050;-80
2021/09/26 11:06:39;;;;;;;2.60;2.40;;;;;;;28.13;37.58;95284.28;4991977;28;20088;-78
2021/09/26 11:09:07;;;;;;;63.05;5.30;;;;;;;27.75;37.38;95287.56;4969450;28;20085;-79
2021/09/26 11:11:45;;;;;;;211.43;10.13;;;;;;;27.43;38.00;95284.38;4991056;28;20106;-81
2021/09/26 11:14:11;;;;;;;2.97;2.42;;;;;;;27.07;39.21;95264.97;4990628;28;20117;-79
2021/09/26 11:16:56;;;;;;;38.50;3.45;;;;;;;27.38;38.34;95273.75;4990156;28;20038;-78
2021/09/26 11:19:26;;;;;;;141.88;6.57;;;;;;;27.83;37.85;95279.03;4990346;28;20098;-80
2021/09/26 11:21:55;;;;;;;21.50;2.95;;;;;;;27.55;37.65;95269.75;4992208;28;20053;-82
2021/09/26 11:24:21;;;;;;;3.33;2.25;;;;;;;27.74;37.97;95272.66;4990285;28;20040;-79
2021/09/26 11:27:07;;;;;;;16.75;2.90;;;;;;;27.59;38.01;95273.47;4991863;28;20034;-79
2021/09/26 11:29:38;;;;;;;2.78;2.35;;;;;;;27.38;37.27;95265.75;4990666;28;20034;-79
2021/09/26 11:32:28;;;;;;;99.13;6.10;;;;;;;27.19;37.95;95268.19;4991744;28;20551;-79
2021/09/26 11:34:55;;;;;;;115.03;6.05;;;;;;;27.50;37.84;95248.47;4991153;28;20031;-78
2021/09/26 11:37:40;;;;;;;4.07;2.40;;;;;;;27.26;37.60;95258.03;4990589;28;20559;-79
2021/09/26 11:40:13;;;;;;;3.50;2.30;;;;;;;27.47;37.30;95251.69;4991591;28;20031;-78
2021/09/26 11:42:40;;;;;;;5.18;2.60;;;;;;;27.64;36.44;95235.41;4990841;28;20046;-79
2021/09/26 11:45:10;;;;;;;3.40;3.15;;;;;;;27.55;36.32;95219.16;4990873;28;20033;-79
2021/09/26 11:47:36;;;;;;;2.20;2.00;;;;;;;27.29;36.44;95238.91;4991051;28;20030;-78
2021/09/26 11:50:08;;;;;;;82.45;4.90;;;;;;;27.62;37.32;95245.50;4990465;28;20038;-79
2021/09/26 11:52:38;;;;;;;45.50;6.32;;;;;;;27.79;36.35;95230.03;4991673;28;20439;-77
2021/09/26 11:55:07;;;;;;;6.03;3.08;;;;;;;27.71;35.53;95214.59;4988624;28;20619;-78
2021/09/26 11:57:32;;;;;;;62.88;6.57;;;;;;;27.81;36.75;95232.41;4990883;28;20029;-78
2021/09/26 11:59:58;;;;;;;4.68;2.70;;;;;;;27.87;36.62;95220.69;4990374;28;20404;-78
2021/09/26 12:02:23;;;;;;;180.68;6.78;;;;;;;27.40;36.05;95216.53;4990613;28;20038;-79
2021/09/26 12:04:48;;;;;;;51.80;9.25;;;;;;;27.60;36.28;95224.50;4989520;28;20038;-79
2021/09/26 12:07:14;;;;;;;8.82;6.70;;;;;;;27.62;36.76;95221.56;4990421;28;20030;-78
2021/09/26 12:09:47;;;;;;;138.02;8.40;;;;;;;27.63;36.76;95193.88;4990641;28;20416;-79
2021/09/26 12:12:19;;;;;;;26.92;3.28;;;;;;;27.19;36.78;95217.63;4990106;28;20376;-78
2021/09/26 12:14:51;;;;;;;3.53;2.15;;;;;;;27.57;36.24;95205.59;4990752;28;20030;-80
2021/09/26 12:17:25;;;;;;;2.28;2.15;;;;;;;27.47;36.43;95206.44;4989921;28;20022;-78
2021/09/26 12:19:52;;;;;;;56.42;4.25;;;;;;;27.54;36.82;95209.59;4990369;28;20033;-78
2021/09/26 12:22:18;;;;;;;123.35;8.40;;;;;;;27.58;37.00;95207.22;4989190;28;20071;-80
2021/09/26 12:24:53;;;;;;;242.73;12.90;;;;;;;27.42;36.10;95198.41;4989659;28;20495;-80
2021/09/26 12:27:34;;;;;;;44.03;4.50;;;;;;;27.35;36.64;95200.56;4991389;28;20034;-78
2021/09/26 12:30:02;;;;;;;2.28;2.15;;;;;;;27.73;36.03;95193.84;4989106;28;20038;-78
2021/09/26 12:32:31;;;;;;;2.10;1.98;;;;;;;27.97;36.01;95194.00;4990540;28;20483;-79
2021/09/26 12:34:57;;;;;;;143.25;7.18;;;;;;;27.69;34.70;95190.91;4988599;28;20455;-79
2021/09/26 12:37:24;;;;;;;73.55;5.65;;;;;;;27.37;35.80;95192.31;4988608;28;20084;-78
2021/09/26 12:39:51;;;;;;;5.35;2.15;;;;;;;27.48;35.09;95188.59;4990004;28;20401;-77
2021/09/26 12:42:29;;;;;;;4.25;3.17;;;;;;;27.27;34.50;95177.16;4987390;28;20102;-79
2021/09/26 12:44:55;;;;;;;189.45;15.82;;;;;;;27.15;34.75;95174.78;4990141;28;20126;-77
2021/09/26 12:47:24;;;;;;;406.20;19.02;;;;;;;27.31;34.34;95172.09;4989014;28;20189;-78
2021/09/26 12:49:50;;;;;;;;;;;;;;;27.61;34.93;95170.16;4989107;28;20030;-78
2021/09/26 12:52:21;;;;;;;94.82;6.38;;;;;;;27.10;34.91;95169.47;4989662;28;19913;-78
2021/09/26 12:54:50;;;;;;;2.47;2.28;;;;;;;27.46;35.19;95164.91;4987251;28;20089;-77
2021/09/26 12:57:18;;;;;;;2.50;1.85;;;;;;;28.02;34.97;95160.16;4988908;28;20104;-79
2021/09/26 12:59:44;;;;;;;1.90;1.80;;;;;;;27.86;34.16;95157.84;4987588;28;20404;-80
2021/09/26 13:02:10;;;;;;;1.70;1.60;;;;;;;27.86;32.98;95155.97;4990098;28;20525;-78
2021/09/26 13:04:35;;;;;;;1.73;1.63;;;;;;;28.16;32.24;95152.38;4988430;28;20162;-77
2021/09/26 13:07:01;;;;;;;63.25;3.90;;;;;;;27.47;33.68;95147.06;4989014;28;20034;-79
2021/09/26 13:09:35;;;;;;;3.30;1.92;;;;;;;27.33;34.33;95144.13;4987676;28;20014;-78
2021/09/26 13:12:38;;;;;;;3.72;2.00;;;;;;;27.26;34.92;95140.97;4988458;28;20034;-79
2021/09/26 13:15:10;;;;;;;1.98;1.85;;;;;;;27.73;34.39;95137.91;4988375;28;20022;-78
2021/09/26 13:17:35;;;;;;;2.55;2.03;;;;;;;27.77;34.97;95127.53;4988345;28;20034;-78
2021/09/26 13:20:20;;;;;;;2.45;1.95;;;;;;;27.89;34.55;95134.13;4988555;28;20054;-78
2021/09/26 13:22:46;;;;;;;2.30;2.10;;;;;;;27.60;34.32;95112.69;4988331;28;20185;-79
2021/09/26 13:25:11;;;;;;;5.53;2.67;;;;;;;27.81;34.36;95126.69;4987074;28;20502;-78
2021/09/26 13:27:43;;;;;;;225.45;9.93;;;;;;;27.91;34.35;95131.97;4989789;28;20030;-79
2021/09/26 13:30:24;;;;;;;8.73;8.05;;;;;;;27.77;34.38;95116.88;4988138;28;20085;-79
2021/09/26 13:32:59;;;;;;;7.55;6.90;;;;;;;27.55;34.79;95112.69;4989677;28;20030;-78
2021/09/26 13:35:33;;;;;;;2.30;2.20;;;;;;;28.00;34.81;95113.56;4988456;28;20034;-79
2021/09/26 13:38:17;;;;;;;2.67;2.45;;;;;;;27.87;34.22;95087.53;4987760;28;20508;-77
2021/09/26 13:40:45;;;;;;;3.47;2.08;;;;;;;27.85;33.99;95108.28;4997816;28;20030;-80
2021/09/26 13:43:34;;;;;;;2.28;1.98;;;;;;;27.28;33.58;95098.94;5007117;28;20036;-77
2021/09/26 13:45:59;;;;;;;47.37;3.97;;;;;;;27.35;34.60;95104.75;5007973;28;20046;-78
2021/09/26 13:48:25;;;;;;;2.75;1.88;;;;;;;27.54;35.62;95095.13;5007669;28;20040;-78
2021/09/26 13:50:51;;;;;;;2.83;2.28;;;;;;;27.64;35.54;95100.41;5008469;28;20022;-78
2021/09/26 13:53:17;;;;;;;2.38;2.17;;;;;;;27.34;35.97;95089.06;5008571;28;20034;-78
2021/09/26 13:55:43;;;;;;;2.80;2.20;;;;;;;27.57;35.54;95088.47;5007735;28;20072;-79
2021/09/26 13:58:09;;;;;;;3.05;2.20;;;;;;;27.52;34.67;95089.28;5007887;28;20022;-79
2021/09/26 14:00:34;;;;;;;3.65;3.35;;;;;;;27.32;35.05;95081.34;5007836;28;20029;-78
2021/09/26 14:03:00;;;;;;;3.13;2.20;;;;;;;27.51;35.58;95082.38;5007127;28;20038;-77
2021/09/26 14:05:27;;;;;;;2.28;2.13;;;;;;;27.75;35.31;95087.84;5007554;28;20034;-78
2021/09/26 14:07:52;;;;;;;2.45;2.25;;;;;;;27.53;35.02;95085.56;5008810;28;20416;-79
2021/09/26 14:10:18;;;;;;;5.50;2.03;;;;;;;27.89;35.84;95085.38;5007969;28;20033;-77
2021/09/26 14:12:43;;;;;;;3.40;2.42;;;;;;;27.79;34.50;95080.09;5007745;28;20434;-79
2021/09/26 14:15:09;;;;;;;2.05;1.95;;;;;;;27.69;35.80;95083.59;5008456;28;20028;-78
2021/09/26 14:17:35;;;;;;;4.00;2.78;;;;;;;27.67;35.01;95081.22;5007589;28;20380;-78
2021/09/26 14:20:00;;;;;;;94.32;5.68;;;;;;;27.56;35.08;95077.03;5008450;28;20080;-79
2021/09/26 14:22:26;;;;;;;3.05;2.10;;;;;;;27.19;35.48;95079.28;5007356;28;20026;-78
2021/09/26 14:24:51;;;;;;;3.88;2.28;;;;;;;27.07;35.69;95076.09;5008163;28;20057;-78
2021/09/26 14:27:17;;;;;;;2.58;2.38;;;;;;;27.19;35.70;95071.28;5007240;28;20026;-78
2021/09/26 14:29:42;;;;;;;2.25;2.05;;;;;;;27.06;35.25;95071.88;5007414;28;20038;-78
2021/09/26 14:32:08;;;;;;;2.38;2.17;;;;;;;27.49;34.94;95060.53;5008250;28;20030;-77
2021/09/26 14:34:33;;;;;;;2.47;2.05;;;;;;;27.00;35.06;95070.28;5007819;28;20045;-78
2021/09/26 14:36:59;;;;;;;5.10;2.75;;;;;;;27.08;36.36;95064.41;5008428;28;20034;-78
2021/09/26 14:39:24;;;;;;;2.80;2.53;;;;;;;27.14;35.46;95063.31;5007016;28;20022;-78
2021/09/26 14:41:50;;;;;;;2.40;2.20;;;;;;;27.35;35.60;95061.38;5008302;28;20570;-78
2021/09/26 14:44:15;;;;;;;2.35;2.15;;;;;;;27.02;36.35;95065.47;5006443;28;20061;-78
2021/09/26 14:46:41;;;;;;;2.08;1.90;;;;;;;26.94;36.40;95056.19;5008185;28;20030;-78
2021/09/26 14:49:06;;;;;;;5.10;2.38;;;;;;;27.00;36.25;95057.75;5007758;28;20018;-78
2021/09/26 14:51:32;;;;;;;5.47;2.20;;;;;;;27.06;36.76;95055.91;5007728;28;20491;-77
2021/09/26 14:53:57;;;;;;;2.13;1.92;;;;;;;26.91;36.34;95054.06;5008209;28;20026;-78
2021/09/26 14:56:24;;;;;;;2.95;2.13;;;;;;;26.91;36.27;95053.25;5006816;28;20500;-78
2021/09/26 14:58:50;;;;;;;3.15;2.40;;;;;;;27.13;35.42;95056.41;5008250;28;20422;-78
2021/09/26 15:01:16;;;;;;;5.22;2.47;;;;;;;27.04;35.57;95055.34;5006406;28;20030;-78
2021/09/26 15:03:42;;;;;;;5.10;2.40;;;;;;;26.70;35.99;95017.94;5007822;28;20030;-79
2021/09/26 15:06:07;;;;;;;5.47;2.40;;;;;;;26.57;36.96;95047.72;5006866;28;20032;-78
2021/09/26 15:08:33;;;;;;;4.00;2.40;;;;;;;26.72;35.60;95051.16;5007947;28;20561;-78
2021/09/26 15:10:59;;;;;;;3.20;2.00;;;;;;;26.58;35.74;95049.34;5007777;28;20096;-78
2021/09/26 15:13:24;;;;;;;2.78;2.10;;;;;;;26.32;37.59;95050.41;5005683;28;20065;-78
2021/09/26 15:15:50;;;;;;;2.28;2.05;;;;;;;26.48;35.41;95046.69;5008396;28;20085;-78
2021/09/26 15:18:17;;;;;;;2.20;2.00;;;;;;;26.32;35.16;95042.44;5008763;28;20136;-79
2021/09/26 15:20:43;;;;;;;5.85;2.00;;;;;;;26.13;34.97;95044.81;5011259;28;20205;-78
2021/09/26 15:23:09;;;;;;;2.00;1.90;;;;;;;26.12;35.01;95043.19;5007055;28;20066;-78
2021/09/26 15:25:37;;;;;;;1.90;1.80;;;;;;;26.04;34.75;95041.09;5008109;28;20033;-78
2021/09/26 15:28:02;;;;;;;2.13;2.00;;;;;;;25.91;37.37;95049.56;5006308;28;20109;-82
2021/09/26 15:30:28;;;;;;;3.13;1.98;;;;;;;25.66;40.29;95043.13;5010465;28;20036;-82
2021/09/26 15:32:54;;;;;;;2.80;2.33;;;;;;;25.58;41.54;95041.00;5013431;28;20050;-80
2021/09/26 15:35:20;;;;;;;2.20;2.05;;;;;;;25.27;42.94;95057.84;5007564;28;20029;-80
2021/09/26 15:37:45;;;;;;;3.28;2.30;;;;;;;25.07;43.34;95052.47;5008048;28;20029;-81
2021/09/26 15:40:16;;;;;;;6.78;2.40;;;;;;;24.86;44.81;95050.75;5007491;28;20033;-80
2021/09/26 15:42:42;;;;;;;8.13;3.30;;;;;;;24.54;45.34;95045.50;5010666;28;20030;-80
2021/09/26 15:45:13;;;;;;;9.43;2.90;;;;;;;24.32;46.79;95053.56;5008645;28;20029;-80
2021/09/26 15:47:39;;;;;;;5.53;2.72;;;;;;;24.12;47.76;95056.03;5009775;28;20400;-80
2021/09/26 15:50:06;;;;;;;12.95;3.03;;;;;;;23.74;49.60;95056.19;5010038;28;20088;-80
2021/09/26 15:52:32;;;;;;;6.97;2.65;;;;;;;23.36;49.84;95049.94;5008429;28;20034;-80
2021/09/26 15:54:58;;;;;;;7.80;2.50;;;;;;;22.93;50.21;95049.91;5009788;28;20101;-80
2021/09/26 15:57:23;;;;;;;4.32;2.40;;;;;;;22.74;51.09;95051.25;5008731;28;20105;-79
2021/09/26 15:59:49;;;;;;;6.10;2.40;;;;;;;22.47;52.55;95059.84;5010704;28;20524;-79
2021/09/26 16:02:14;;;;;;;5.45;2.63;;;;;;;22.38;53.58;95053.34;5009310;28;20080;-79
2021/09/26 16:04:40;;;;;;;9.27;2.50;;;;;;;21.79;55.72;95061.84;4994415;28;20404;-79
2021/09/26 16:07:05;;;;;;;6.57;3.25;;;;;;;21.45;57.33;95067.03;4982400;28;20335;-79
2021/09/26 16:09:30;;;;;;;5.03;2.60;;;;;;;21.64;56.97;95064.22;4985575;28;20026;-78
2021/09/26 16:11:56;;;;;;;354.55;16.60;;;;;;;21.19;59.01;95072.84;4985524;28;20031;-79
2021/09/26 16:14:22;;;;;;;81.40;6.03;;;;;;;20.52;61.52;95076.13;4986478;28;20022;-78
2021/09/26 16:16:47;;;;;;;3.70;2.60;;;;;;;20.65;59.75;95073.25;4990742;28;20018;-78
2021/09/26 16:19:13;;;;;;;4.93;2.65;;;;;;;20.66;58.08;95066.94;4987917;28;20633;-80
2021/09/26 16:21:38;;;;;;;3.15;2.65;;;;;;;20.43;58.36;95046.69;4989440;28;20062;-79
2021/09/26 16:24:05;;;;;;;4.30;3.63;;;;;;;20.38;57.46;95072.91;4985673;28;20843;-76
2021/09/26 16:26:31;;;;;;;5.00;4.50;;;;;;;20.10;58.07;95072.75;4989707;28;20034;-76
2021/09/26 16:28:57;;;;;;;5.68;4.50;;;;;;;19.81;58.03;95069.13;4989631;28;20575;-77
2021/09/26 16:31:23;;;;;;;5.75;5.10;;;;;;;19.70;59.07;95075.16;4988916;28;20026;-77
2021/09/26 16:33:50;;;;;;;9.48;7.47;;;;;;;19.75;59.26;95060.28;4989787;28;20503;-75
2021/09/26 16:36:15;;;;;;;11.68;9.70;;;;;;;19.46;59.05;95061.91;4989101;28;20030;-76